LFRD/DNR METAR and TAF weather

Enter ICAO airport designator
Station Type Date Time Source
LFRD METAR 2021/03/05 13:00 UTC NOAA

LFRD 051300Z AUTO 07011KT 030V090 9999 SCT033 OVC041 08/02 Q1027 TEMPO 05015G25KT


Station Type Date Time Source
LFRD Decoded METAR 2021/03/05 13:00 UTC NOAA

Dinard, France (LFRD) 48-35N 002-04W 60M
Mar 05, 2021 - 08:00 AM EST / 2021.03.05 1300 UTC
Wind: from the ENE (070 degrees) at 13 MPH (11 KT) (direction variable):0
Visibility: greater than 7 mile(s):0
Sky conditions: overcast
Temperature: 46 F (8 C)
Dew Point: 35 F (2 C)
Relative Humidity: 65%
Pressure (altimeter): 30.33 in. Hg (1027 hPa)
ob: LFRD 051300Z AUTO 07011KT 030V090 9999 SCT033 OVC041 08/02 Q1027 TEMPO 05015G25KT
cycle: 13

Station Type Date Time Source
LFRD TAF 2021/03/05 12:21 UTC NOAA

TAF LFRD 051100Z 0512/0612 05010KT 9999 SCT030
TEMPO 0514/0521 05015G25KT

Example: see airport list